Central Illinois Regional Airport at Bloomington-normal Bloomington-normal US
ICAO: KBMI
IATA: BMI
Category: Large
Scheduled Services: Yes

Elevation: 871 ft
TransAlt. 18000 ft.

Airport Communications:
PEORIA APP/DEP:118.05
ASOS:135.35
ATIS:135.35
CTAF:124.6
GND:121.65
KANKAKEE RDO:108.2
BLOOMINGTON TWR:124.6
UNICOM:122.95

KBMI Zoom In..

Runways:

(A) RW 02 length 8000 ft width 150 ft
ILS 111.90 / hdg 18

(B) RW 11 length 6525 ft width 150 ft
---- / hdg 108

(C) RW 20 length 8000 ft width 150 ft
ILS 111.90 / hdg 198

(D) RW 29 length 6525 ft width 150 ft
ILS 108.30 / hdg 288

Location; KBMI
Day. 23 / Time. 18.56 Zulu
* Altimeter: 29.94
* Temperature: -01° c. -30.2°f.
* Wind from: 300° Speed 19 kn with Gusts up to 24 kn.
Dewpoint: -03° c.
Visibility: 10 Statute Miles.
Clouds: Overcast 2000 ft.

KBMI 231856Z 30019G24KT 10SM OVC020 M01/M03 A2994 RMK AO2 SLP167 T10061033


Wind From 300°
Speed 19 kn.

YouTube Music Video
 
jpsmedia.com for Web Design  worldairports.se 2018   terms of use